sensor_id;sensor_type;location;lat;lon;timestamp;P1;durP1;ratioP1;P2;durP2;ratioP2
39078;SDS011;24829;49.208;12.080;2024-03-25T00:01:54;7.70;;;3.25;;
39078;SDS011;24829;49.208;12.080;2024-03-25T00:04:20;8.90;;;4.03;;
39078;SDS011;24829;49.208;12.080;2024-03-25T00:06:47;6.35;;;3.40;;
39078;SDS011;24829;49.208;12.080;2024-03-25T00:09:14;6.97;;;3.42;;
39078;SDS011;24829;49.208;12.080;2024-03-25T00:11:40;8.60;;;3.35;;
39078;SDS011;24829;49.208;12.080;2024-03-25T00:14:06;7.55;;;2.97;;
39078;SDS011;24829;49.208;12.080;2024-03-25T00:16:31;13.07;;;3.47;;
39078;SDS011;24829;49.208;12.080;2024-03-25T00:18:57;10.57;;;3.65;;
39078;SDS011;24829;49.208;12.080;2024-03-25T00:21:22;8.27;;;3.13;;
39078;SDS011;24829;49.208;12.080;2024-03-25T00:23:49;9.68;;;3.47;;
39078;SDS011;24829;49.208;12.080;2024-03-25T00:26:15;6.47;;;3.20;;
39078;SDS011;24829;49.208;12.080;2024-03-25T00:28:40;7.32;;;2.60;;
39078;SDS011;24829;49.208;12.080;2024-03-25T00:31:06;7.75;;;3.00;;
39078;SDS011;24829;49.208;12.080;2024-03-25T00:33:31;5.68;;;2.67;;
39078;SDS011;24829;49.208;12.080;2024-03-25T00:35:57;10.80;;;3.90;;
39078;SDS011;24829;49.208;12.080;2024-03-25T00:38:24;5.78;;;2.92;;
39078;SDS011;24829;49.208;12.080;2024-03-25T00:40:49;11.00;;;3.58;;
39078;SDS011;24829;49.208;12.080;2024-03-25T00:43:15;6.38;;;2.85;;
39078;SDS011;24829;49.208;12.080;2024-03-25T00:45:42;3.95;;;2.20;;
39078;SDS011;24829;49.208;12.080;2024-03-25T00:48:08;4.65;;;2.85;;
39078;SDS011;24829;49.208;12.080;2024-03-25T00:50:34;6.28;;;2.85;;
39078;SDS011;24829;49.208;12.080;2024-03-25T00:52:59;4.25;;;2.50;;
39078;SDS011;24829;49.208;12.080;2024-03-25T00:55:25;5.82;;;2.95;;
39078;SDS011;24829;49.208;12.080;2024-03-25T00:57:50;6.35;;;3.13;;
39078;SDS011;24829;49.208;12.080;2024-03-25T01:00:16;8.88;;;2.95;;
39078;SDS011;24829;49.208;12.080;2024-03-25T01:02:42;8.52;;;2.80;;
39078;SDS011;24829;49.208;12.080;2024-03-25T01:05:08;6.57;;;2.65;;
39078;SDS011;24829;49.208;12.080;2024-03-25T01:07:34;5.80;;;3.17;;
39078;SDS011;24829;49.208;12.080;2024-03-25T01:10:00;8.50;;;3.08;;
39078;SDS011;24829;49.208;12.080;2024-03-25T01:12:25;6.93;;;4.00;;
39078;SDS011;24829;49.208;12.080;2024-03-25T01:14:51;8.38;;;2.92;;
39078;SDS011;24829;49.208;12.080;2024-03-25T01:17:17;6.00;;;3.08;;
39078;SDS011;24829;49.208;12.080;2024-03-25T01:19:43;8.85;;;3.42;;
39078;SDS011;24829;49.208;12.080;2024-03-25T01:22:09;7.07;;;3.70;;
39078;SDS011;24829;49.208;12.080;2024-03-25T01:24:34;6.72;;;3.03;;
39078;SDS011;24829;49.208;12.080;2024-03-25T01:27:00;6.82;;;2.65;;
39078;SDS011;24829;49.208;12.080;2024-03-25T01:29:26;8.15;;;3.58;;
39078;SDS011;24829;49.208;12.080;2024-03-25T01:31:52;7.25;;;3.20;;
39078;SDS011;24829;49.208;12.080;2024-03-25T01:34:17;5.65;;;3.00;;
39078;SDS011;24829;49.208;12.080;2024-03-25T01:36:43;5.72;;;3.67;;
39078;SDS011;24829;49.208;12.080;2024-03-25T01:39:09;7.45;;;3.38;;
39078;SDS011;24829;49.208;12.080;2024-03-25T01:41:34;8.57;;;3.42;;
39078;SDS011;24829;49.208;12.080;2024-03-25T01:44:00;7.45;;;3.00;;
39078;SDS011;24829;49.208;12.080;2024-03-25T01:46:27;5.53;;;3.20;;
39078;SDS011;24829;49.208;12.080;2024-03-25T01:48:52;5.88;;;3.08;;
39078;SDS011;24829;49.208;12.080;2024-03-25T01:51:19;9.63;;;3.88;;
39078;SDS011;24829;49.208;12.080;2024-03-25T01:53:46;7.95;;;3.20;;
39078;SDS011;24829;49.208;12.080;2024-03-25T01:56:13;8.20;;;3.33;;
39078;SDS011;24829;49.208;12.080;2024-03-25T01:58:40;5.75;;;3.60;;
39078;SDS011;24829;49.208;12.080;2024-03-25T02:01:06;7.15;;;3.53;;
39078;SDS011;24829;49.208;12.080;2024-03-25T02:03:35;7.38;;;3.17;;
39078;SDS011;24829;49.208;12.080;2024-03-25T02:06:02;7.00;;;3.97;;
39078;SDS011;24829;49.208;12.080;2024-03-25T02:08:33;6.82;;;3.35;;
39078;SDS011;24829;49.208;12.080;2024-03-25T02:10:59;8.00;;;3.75;;
39078;SDS011;24829;49.208;12.080;2024-03-25T02:13:26;7.75;;;3.13;;
39078;SDS011;24829;49.208;12.080;2024-03-25T02:15:52;6.75;;;3.25;;
39078;SDS011;24829;49.208;12.080;2024-03-25T02:18:19;8.20;;;2.88;;
39078;SDS011;24829;49.208;12.080;2024-03-25T02:20:46;6.25;;;3.70;;
39078;SDS011;24829;49.208;12.080;2024-03-25T02:23:12;5.82;;;3.28;;
39078;SDS011;24829;49.208;12.080;2024-03-25T02:25:39;4.22;;;2.80;;
39078;SDS011;24829;49.208;12.080;2024-03-25T02:28:07;10.55;;;3.30;;
39078;SDS011;24829;49.208;12.080;2024-03-25T02:30:33;6.38;;;3.60;;
39078;SDS011;24829;49.208;12.080;2024-03-25T02:32:58;10.18;;;3.80;;
39078;SDS011;24829;49.208;12.080;2024-03-25T02:35:24;5.22;;;2.97;;
39078;SDS011;24829;49.208;12.080;2024-03-25T02:37:51;6.43;;;2.90;;
39078;SDS011;24829;49.208;12.080;2024-03-25T02:40:17;10.23;;;3.10;;
39078;SDS011;24829;49.208;12.080;2024-03-25T02:42:45;7.90;;;3.88;;
39078;SDS011;24829;49.208;12.080;2024-03-25T02:45:11;7.88;;;3.13;;
39078;SDS011;24829;49.208;12.080;2024-03-25T02:47:36;4.95;;;2.50;;
39078;SDS011;24829;49.208;12.080;2024-03-25T02:50:02;7.93;;;2.97;;
39078;SDS011;24829;49.208;12.080;2024-03-25T02:52:28;6.18;;;3.60;;
39078;SDS011;24829;49.208;12.080;2024-03-25T02:54:53;7.28;;;3.10;;
39078;SDS011;24829;49.208;12.080;2024-03-25T02:57:19;9.40;;;3.28;;
39078;SDS011;24829;49.208;12.080;2024-03-25T02:59:45;9.35;;;3.67;;
39078;SDS011;24829;49.208;12.080;2024-03-25T03:02:11;7.03;;;3.08;;
39078;SDS011;24829;49.208;12.080;2024-03-25T03:04:36;6.18;;;3.40;;
39078;SDS011;24829;49.208;12.080;2024-03-25T03:07:02;8.13;;;3.47;;
39078;SDS011;24829;49.208;12.080;2024-03-25T03:09:28;6.90;;;3.03;;
39078;SDS011;24829;49.208;12.080;2024-03-25T03:11:53;10.00;;;3.47;;
39078;SDS011;24829;49.208;12.080;2024-03-25T03:14:19;8.65;;;3.58;;
39078;SDS011;24829;49.208;12.080;2024-03-25T03:16:45;6.55;;;3.40;;
39078;SDS011;24829;49.208;12.080;2024-03-25T03:19:10;7.60;;;3.50;;
39078;SDS011;24829;49.208;12.080;2024-03-25T03:21:36;5.32;;;3.55;;
39078;SDS011;24829;49.208;12.080;2024-03-25T03:24:02;7.70;;;3.53;;
39078;SDS011;24829;49.208;12.080;2024-03-25T03:26:28;8.07;;;3.83;;
39078;SDS011;24829;49.208;12.080;2024-03-25T03:28:54;8.10;;;3.13;;
39078;SDS011;24829;49.208;12.080;2024-03-25T03:31:19;5.93;;;3.67;;
39078;SDS011;24829;49.208;12.080;2024-03-25T03:33:48;5.53;;;3.03;;
39078;SDS011;24829;49.208;12.080;2024-03-25T03:36:17;7.00;;;3.22;;
39078;SDS011;24829;49.208;12.080;2024-03-25T03:38:44;6.43;;;2.60;;
39078;SDS011;24829;49.208;12.080;2024-03-25T03:41:10;6.05;;;2.85;;
39078;SDS011;24829;49.208;12.080;2024-03-25T03:43:35;5.55;;;3.15;;
39078;SDS011;24829;49.208;12.080;2024-03-25T03:46:01;5.85;;;3.08;;
39078;SDS011;24829;49.208;12.080;2024-03-25T03:48:27;6.05;;;2.50;;
39078;SDS011;24829;49.208;12.080;2024-03-25T03:50:53;4.82;;;2.80;;
39078;SDS011;24829;49.208;12.080;2024-03-25T03:53:19;8.65;;;3.17;;
39078;SDS011;24829;49.208;12.080;2024-03-25T03:55:54;7.10;;;2.95;;
39078;SDS011;24829;49.208;12.080;2024-03-25T03:58:23;8.80;;;3.53;;
39078;SDS011;24829;49.208;12.080;2024-03-25T04:00:50;8.60;;;3.47;;
39078;SDS011;24829;49.208;12.080;2024-03-25T04:03:16;11.90;;;3.60;;
39078;SDS011;24829;49.208;12.080;2024-03-25T04:05:42;11.45;;;4.13;;
39078;SDS011;24829;49.208;12.080;2024-03-25T04:08:08;8.95;;;3.67;;
39078;SDS011;24829;49.208;12.080;2024-03-25T04:10:34;7.28;;;4.13;;
39078;SDS011;24829;49.208;12.080;2024-03-25T04:13:00;6.63;;;3.22;;
39078;SDS011;24829;49.208;12.080;2024-03-25T04:15:26;5.50;;;3.25;;
39078;SDS011;24829;49.208;12.080;2024-03-25T04:17:52;4.78;;;2.85;;
39078;SDS011;24829;49.208;12.080;2024-03-25T04:20:18;9.35;;;4.15;;
39078;SDS011;24829;49.208;12.080;2024-03-25T04:22:45;10.30;;;4.25;;
39078;SDS011;24829;49.208;12.080;2024-03-25T04:25:11;9.85;;;3.70;;
39078;SDS011;24829;49.208;12.080;2024-03-25T04:27:43;6.90;;;3.60;;
39078;SDS011;24829;49.208;12.080;2024-03-25T04:30:10;8.82;;;4.28;;
39078;SDS011;24829;49.208;12.080;2024-03-25T04:32:36;8.45;;;3.70;;
39078;SDS011;24829;49.208;12.080;2024-03-25T04:35:03;9.55;;;3.53;;
39078;SDS011;24829;49.208;12.080;2024-03-25T04:37:29;9.27;;;4.57;;
39078;SDS011;24829;49.208;12.080;2024-03-25T04:39:55;8.50;;;3.70;;
39078;SDS011;24829;49.208;12.080;2024-03-25T04:42:21;7.50;;;3.58;;
39078;SDS011;24829;49.208;12.080;2024-03-25T04:44:48;6.35;;;4.10;;
39078;SDS011;24829;49.208;12.080;2024-03-25T04:47:13;9.13;;;4.20;;
39078;SDS011;24829;49.208;12.080;2024-03-25T04:49:42;9.18;;;3.78;;
39078;SDS011;24829;49.208;12.080;2024-03-25T04:52:08;8.43;;;4.07;;
39078;SDS011;24829;49.208;12.080;2024-03-25T04:54:34;7.93;;;4.40;;
39078;SDS011;24829;49.208;12.080;2024-03-25T04:56:59;8.02;;;3.88;;
39078;SDS011;24829;49.208;12.080;2024-03-25T04:59:25;6.63;;;3.38;;
39078;SDS011;24829;49.208;12.080;2024-03-25T05:01:51;7.80;;;3.65;;
39078;SDS011;24829;49.208;12.080;2024-03-25T05:04:17;8.10;;;3.38;;
39078;SDS011;24829;49.208;12.080;2024-03-25T05:06:43;6.40;;;3.63;;
39078;SDS011;24829;49.208;12.080;2024-03-25T05:09:09;9.10;;;3.95;;
39078;SDS011;24829;49.208;12.080;2024-03-25T05:11:35;6.22;;;3.38;;
39078;SDS011;24829;49.208;12.080;2024-03-25T05:14:01;10.18;;;3.92;;
39078;SDS011;24829;49.208;12.080;2024-03-25T05:16:26;5.65;;;3.10;;
39078;SDS011;24829;49.208;12.080;2024-03-25T05:18:52;7.32;;;3.45;;
39078;SDS011;24829;49.208;12.080;2024-03-25T05:21:17;6.25;;;3.47;;
39078;SDS011;24829;49.208;12.080;2024-03-25T05:23:43;10.65;;;4.15;;
39078;SDS011;24829;49.208;12.080;2024-03-25T05:26:09;7.93;;;4.00;;
39078;SDS011;24829;49.208;12.080;2024-03-25T05:28:35;8.02;;;3.35;;
39078;SDS011;24829;49.208;12.080;2024-03-25T05:31:07;8.27;;;4.18;;
39078;SDS011;24829;49.208;12.080;2024-03-25T05:33:33;4.90;;;3.08;;
39078;SDS011;24829;49.208;12.080;2024-03-25T05:35:59;6.57;;;3.13;;
39078;SDS011;24829;49.208;12.080;2024-03-25T05:38:25;6.97;;;3.38;;
39078;SDS011;24829;49.208;12.080;2024-03-25T05:40:51;7.07;;;3.33;;
39078;SDS011;24829;49.208;12.080;2024-03-25T05:43:17;7.75;;;3.15;;
39078;SDS011;24829;49.208;12.080;2024-03-25T05:45:49;6.55;;;3.70;;
39078;SDS011;24829;49.208;12.080;2024-03-25T05:48:18;6.35;;;3.08;;
39078;SDS011;24829;49.208;12.080;2024-03-25T05:50:45;6.97;;;3.10;;
39078;SDS011;24829;49.208;12.080;2024-03-25T05:53:10;6.65;;;3.78;;
39078;SDS011;24829;49.208;12.080;2024-03-25T05:55:36;4.45;;;2.90;;
39078;SDS011;24829;49.208;12.080;2024-03-25T05:58:01;10.57;;;3.50;;
39078;SDS011;24829;49.208;12.080;2024-03-25T06:00:28;7.88;;;3.28;;
39078;SDS011;24829;49.208;12.080;2024-03-25T06:02:55;4.97;;;2.78;;
39078;SDS011;24829;49.208;12.080;2024-03-25T06:05:21;7.63;;;3.80;;
39078;SDS011;24829;49.208;12.080;2024-03-25T06:07:46;8.45;;;4.10;;
39078;SDS011;24829;49.208;12.080;2024-03-25T06:10:12;5.38;;;3.10;;
39078;SDS011;24829;49.208;12.080;2024-03-25T06:12:38;5.05;;;3.35;;
39078;SDS011;24829;49.208;12.080;2024-03-25T06:15:03;7.80;;;3.55;;
39078;SDS011;24829;49.208;12.080;2024-03-25T06:17:30;6.63;;;3.33;;
39078;SDS011;24829;49.208;12.080;2024-03-25T06:19:55;8.98;;;3.95;;
39078;SDS011;24829;49.208;12.080;2024-03-25T06:22:21;7.43;;;3.53;;
39078;SDS011;24829;49.208;12.080;2024-03-25T06:24:46;7.93;;;3.67;;
39078;SDS011;24829;49.208;12.080;2024-03-25T06:27:14;12.55;;;4.57;;
39078;SDS011;24829;49.208;12.080;2024-03-25T06:29:39;12.40;;;4.60;;
39078;SDS011;24829;49.208;12.080;2024-03-25T06:32:05;8.82;;;4.35;;
39078;SDS011;24829;49.208;12.080;2024-03-25T06:34:49;7.65;;;3.97;;
39078;SDS011;24829;49.208;12.080;2024-03-25T06:37:15;8.32;;;3.03;;
39078;SDS011;24829;49.208;12.080;2024-03-25T06:39:40;9.93;;;3.38;;
39078;SDS011;24829;49.208;12.080;2024-03-25T06:42:06;6.03;;;3.20;;
39078;SDS011;24829;49.208;12.080;2024-03-25T06:44:32;8.48;;;3.28;;
39078;SDS011;24829;49.208;12.080;2024-03-25T06:46:58;5.40;;;3.10;;
39078;SDS011;24829;49.208;12.080;2024-03-25T06:49:23;9.60;;;3.08;;
39078;SDS011;24829;49.208;12.080;2024-03-25T06:51:49;6.18;;;3.13;;
39078;SDS011;24829;49.208;12.080;2024-03-25T06:54:14;8.00;;;3.00;;
39078;SDS011;24829;49.208;12.080;2024-03-25T06:56:40;7.93;;;3.50;;
39078;SDS011;24829;49.208;12.080;2024-03-25T06:59:06;6.10;;;3.33;;
39078;SDS011;24829;49.208;12.080;2024-03-25T07:01:32;5.32;;;2.75;;
39078;SDS011;24829;49.208;12.080;2024-03-25T07:03:58;6.55;;;3.22;;
39078;SDS011;24829;49.208;12.080;2024-03-25T07:06:23;5.57;;;2.47;;
39078;SDS011;24829;49.208;12.080;2024-03-25T07:08:50;8.35;;;3.45;;
39078;SDS011;24829;49.208;12.080;2024-03-25T07:11:16;7.82;;;2.95;;
39078;SDS011;24829;49.208;12.080;2024-03-25T07:13:42;7.32;;;3.03;;
39078;SDS011;24829;49.208;12.080;2024-03-25T07:16:08;5.18;;;2.40;;
39078;SDS011;24829;49.208;12.080;2024-03-25T07:18:34;6.70;;;2.63;;
39078;SDS011;24829;49.208;12.080;2024-03-25T07:20:59;10.52;;;2.90;;
39078;SDS011;24829;49.208;12.080;2024-03-25T07:23:25;7.68;;;2.67;;
39078;SDS011;24829;49.208;12.080;2024-03-25T07:25:51;6.75;;;2.90;;
39078;SDS011;24829;49.208;12.080;2024-03-25T07:28:16;8.00;;;4.05;;
39078;SDS011;24829;49.208;12.080;2024-03-25T07:30:42;8.65;;;3.33;;
39078;SDS011;24829;49.208;12.080;2024-03-25T07:33:07;6.47;;;2.80;;
39078;SDS011;24829;49.208;12.080;2024-03-25T07:35:33;7.65;;;3.28;;
39078;SDS011;24829;49.208;12.080;2024-03-25T07:38:00;5.75;;;2.92;;
39078;SDS011;24829;49.208;12.080;2024-03-25T07:40:28;11.02;;;3.30;;
39078;SDS011;24829;49.208;12.080;2024-03-25T07:42:54;4.95;;;2.35;;
39078;SDS011;24829;49.208;12.080;2024-03-25T07:45:21;5.50;;;1.98;;
39078;SDS011;24829;49.208;12.080;2024-03-25T07:47:47;4.55;;;1.95;;
39078;SDS011;24829;49.208;12.080;2024-03-25T07:50:12;5.10;;;1.95;;
39078;SDS011;24829;49.208;12.080;2024-03-25T07:52:38;6.85;;;2.40;;
39078;SDS011;24829;49.208;12.080;2024-03-25T07:55:08;8.68;;;2.25;;
39078;SDS011;24829;49.208;12.080;2024-03-25T07:57:34;6.88;;;2.35;;
39078;SDS011;24829;49.208;12.080;2024-03-25T08:00:00;8.73;;;2.35;;
39078;SDS011;24829;49.208;12.080;2024-03-25T08:02:26;9.57;;;2.45;;
39078;SDS011;24829;49.208;12.080;2024-03-25T08:04:51;4.55;;;2.00;;
39078;SDS011;24829;49.208;12.080;2024-03-25T08:07:17;11.20;;;2.35;;
39078;SDS011;24829;49.208;12.080;2024-03-25T08:09:43;8.57;;;2.20;;
39078;SDS011;24829;49.208;12.080;2024-03-25T08:12:08;5.85;;;2.10;;
39078;SDS011;24829;49.208;12.080;2024-03-25T08:14:34;6.38;;;1.88;;
39078;SDS011;24829;49.208;12.080;2024-03-25T08:16:59;11.05;;;3.90;;
39078;SDS011;24829;49.208;12.080;2024-03-25T08:19:25;6.43;;;3.65;;
39078;SDS011;24829;49.208;12.080;2024-03-25T08:21:50;8.32;;;3.25;;
39078;SDS011;24829;49.208;12.080;2024-03-25T08:24:16;8.27;;;2.67;;
39078;SDS011;24829;49.208;12.080;2024-03-25T08:26:41;9.65;;;2.67;;
39078;SDS011;24829;49.208;12.080;2024-03-25T08:29:07;6.22;;;2.50;;
39078;SDS011;24829;49.208;12.080;2024-03-25T08:31:33;4.95;;;1.85;;
39078;SDS011;24829;49.208;12.080;2024-03-25T08:33:58;6.03;;;1.90;;
39078;SDS011;24829;49.208;12.080;2024-03-25T08:36:24;6.38;;;2.13;;
39078;SDS011;24829;49.208;12.080;2024-03-25T08:38:49;6.55;;;1.92;;
39078;SDS011;24829;49.208;12.080;2024-03-25T08:41:15;7.90;;;2.13;;
39078;SDS011;24829;49.208;12.080;2024-03-25T08:43:40;5.97;;;1.85;;
39078;SDS011;24829;49.208;12.080;2024-03-25T08:46:06;5.97;;;2.13;;
39078;SDS011;24829;49.208;12.080;2024-03-25T08:48:31;5.30;;;1.60;;
39078;SDS011;24829;49.208;12.080;2024-03-25T08:50:57;7.03;;;1.35;;
39078;SDS011;24829;49.208;12.080;2024-03-25T08:53:23;3.28;;;1.23;;
39078;SDS011;24829;49.208;12.080;2024-03-25T08:55:48;8.45;;;1.45;;
39078;SDS011;24829;49.208;12.080;2024-03-25T08:58:14;3.53;;;1.40;;
39078;SDS011;24829;49.208;12.080;2024-03-25T09:00:40;7.03;;;1.67;;
39078;SDS011;24829;49.208;12.080;2024-03-25T09:03:06;5.68;;;1.83;;
39078;SDS011;24829;49.208;12.080;2024-03-25T09:05:33;3.85;;;1.13;;
39078;SDS011;24829;49.208;12.080;2024-03-25T09:07:59;5.30;;;1.52;;
39078;SDS011;24829;49.208;12.080;2024-03-25T09:10:25;4.13;;;1.70;;
39078;SDS011;24829;49.208;12.080;2024-03-25T09:13:09;5.35;;;1.25;;
39078;SDS011;24829;49.208;12.080;2024-03-25T09:15:35;6.30;;;1.23;;
39078;SDS011;24829;49.208;12.080;2024-03-25T09:18:01;3.58;;;0.98;;
39078;SDS011;24829;49.208;12.080;2024-03-25T09:20:26;5.18;;;1.20;;
39078;SDS011;24829;49.208;12.080;2024-03-25T09:22:52;4.75;;;1.25;;
39078;SDS011;24829;49.208;12.080;2024-03-25T09:25:18;7.72;;;1.60;;
39078;SDS011;24829;49.208;12.080;2024-03-25T09:27:46;6.60;;;1.75;;
39078;SDS011;24829;49.208;12.080;2024-03-25T09:30:13;4.05;;;1.10;;
39078;SDS011;24829;49.208;12.080;2024-03-25T09:32:39;5.72;;;1.58;;
39078;SDS011;24829;49.208;12.080;2024-03-25T09:35:06;3.55;;;0.90;;
39078;SDS011;24829;49.208;12.080;2024-03-25T09:37:32;4.25;;;1.50;;
39078;SDS011;24829;49.208;12.080;2024-03-25T09:39:58;1.77;;;1.10;;
39078;SDS011;24829;49.208;12.080;2024-03-25T09:42:27;2.20;;;0.95;;
39078;SDS011;24829;49.208;12.080;2024-03-25T09:44:58;3.92;;;0.90;;
39078;SDS011;24829;49.208;12.080;2024-03-25T09:47:24;1.95;;;0.75;;
39078;SDS011;24829;49.208;12.080;2024-03-25T09:49:50;4.70;;;1.77;;
39078;SDS011;24829;49.208;12.080;2024-03-25T09:52:19;3.30;;;1.25;;
39078;SDS011;24829;49.208;12.080;2024-03-25T09:54:45;7.35;;;1.63;;
39078;SDS011;24829;49.208;12.080;2024-03-25T09:57:11;4.95;;;2.13;;
39078;SDS011;24829;49.208;12.080;2024-03-25T09:59:37;3.78;;;1.20;;
39078;SDS011;24829;49.208;12.080;2024-03-25T10:02:03;3.75;;;1.00;;
39078;SDS011;24829;49.208;12.080;2024-03-25T10:04:29;2.70;;;1.00;;
39078;SDS011;24829;49.208;12.080;2024-03-25T10:06:55;5.35;;;0.80;;
39078;SDS011;24829;49.208;12.080;2024-03-25T10:09:21;6.47;;;1.20;;
39078;SDS011;24829;49.208;12.080;2024-03-25T10:11:47;1.40;;;0.70;;
39078;SDS011;24829;49.208;12.080;2024-03-25T10:14:17;3.53;;;0.90;;
39078;SDS011;24829;49.208;12.080;2024-03-25T10:16:44;6.20;;;1.52;;
39078;SDS011;24829;49.208;12.080;2024-03-25T10:19:09;2.75;;;1.00;;
39078;SDS011;24829;49.208;12.080;2024-03-25T10:21:35;4.25;;;0.90;;
39078;SDS011;24829;49.208;12.080;2024-03-25T10:24:04;4.95;;;1.05;;
39078;SDS011;24829;49.208;12.080;2024-03-25T10:26:33;7.45;;;1.70;;
39078;SDS011;24829;49.208;12.080;2024-03-25T10:29:06;3.60;;;1.65;;
39078;SDS011;24829;49.208;12.080;2024-03-25T10:31:32;8.57;;;2.67;;
39078;SDS011;24829;49.208;12.080;2024-03-25T10:33:58;5.80;;;2.13;;
39078;SDS011;24829;49.208;12.080;2024-03-25T10:36:24;7.35;;;1.92;;
39078;SDS011;24829;49.208;12.080;2024-03-25T10:38:57;3.13;;;1.45;;
39078;SDS011;24829;49.208;12.080;2024-03-25T10:41:32;3.80;;;1.48;;
39078;SDS011;24829;49.208;12.080;2024-03-25T10:44:00;3.50;;;1.42;;
39078;SDS011;24829;49.208;12.080;2024-03-25T10:46:31;8.32;;;1.10;;
39078;SDS011;24829;49.208;12.080;2024-03-25T10:49:01;2.92;;;0.70;;
39078;SDS011;24829;49.208;12.080;2024-03-25T10:51:31;4.47;;;1.27;;
39078;SDS011;24829;49.208;12.080;2024-03-25T10:53:59;2.22;;;1.02;;
39078;SDS011;24829;49.208;12.080;2024-03-25T10:56:26;3.58;;;1.00;;
39078;SDS011;24829;49.208;12.080;2024-03-25T10:58:52;1.85;;;0.60;;
39078;SDS011;24829;49.208;12.080;2024-03-25T11:01:19;4.15;;;1.10;;
39078;SDS011;24829;49.208;12.080;2024-03-25T11:03:48;4.13;;;0.90;;
39078;SDS011;24829;49.208;12.080;2024-03-25T11:06:14;2.72;;;0.80;;
39078;SDS011;24829;49.208;12.080;2024-03-25T11:08:41;5.38;;;1.02;;
39078;SDS011;24829;49.208;12.080;2024-03-25T11:11:11;3.47;;;1.00;;
39078;SDS011;24829;49.208;12.080;2024-03-25T11:13:37;1.50;;;0.57;;
39078;SDS011;24829;49.208;12.080;2024-03-25T11:16:03;3.08;;;0.80;;
39078;SDS011;24829;49.208;12.080;2024-03-25T11:18:29;1.33;;;0.60;;
39078;SDS011;24829;49.208;12.080;2024-03-25T11:21:02;3.00;;;0.55;;
39078;SDS011;24829;49.208;12.080;2024-03-25T11:23:35;5.38;;;0.90;;
39078;SDS011;24829;49.208;12.080;2024-03-25T11:26:16;2.60;;;0.77;;
39078;SDS011;24829;49.208;12.080;2024-03-25T11:28:43;2.08;;;0.70;;
39078;SDS011;24829;49.208;12.080;2024-03-25T11:31:10;2.78;;;0.80;;
39078;SDS011;24829;49.208;12.080;2024-03-25T11:33:39;4.45;;;0.98;;
39078;SDS011;24829;49.208;12.080;2024-03-25T11:36:05;3.55;;;1.38;;
39078;SDS011;24829;49.208;12.080;2024-03-25T11:38:31;4.40;;;0.80;;
39078;SDS011;24829;49.208;12.080;2024-03-25T11:40:56;1.50;;;0.70;;
39078;SDS011;24829;49.208;12.080;2024-03-25T11:43:22;1.88;;;0.75;;
39078;SDS011;24829;49.208;12.080;2024-03-25T11:45:48;2.90;;;0.68;;
39078;SDS011;24829;49.208;12.080;2024-03-25T11:48:15;2.55;;;0.90;;
39078;SDS011;24829;49.208;12.080;2024-03-25T11:50:41;2.85;;;0.68;;
39078;SDS011;24829;49.208;12.080;2024-03-25T11:53:10;1.70;;;0.70;;
39078;SDS011;24829;49.208;12.080;2024-03-25T11:55:35;2.38;;;0.73;;
39078;SDS011;24829;49.208;12.080;2024-03-25T11:58:01;2.33;;;0.90;;
39078;SDS011;24829;49.208;12.080;2024-03-25T12:00:27;3.40;;;0.80;;
39078;SDS011;24829;49.208;12.080;2024-03-25T12:02:54;5.03;;;0.82;;
39078;SDS011;24829;49.208;12.080;2024-03-25T12:05:19;2.90;;;0.90;;
39078;SDS011;24829;49.208;12.080;2024-03-25T12:07:45;4.63;;;0.80;;
39078;SDS011;24829;49.208;12.080;2024-03-25T12:10:11;2.88;;;0.80;;
39078;SDS011;24829;49.208;12.080;2024-03-25T12:12:55;1.70;;;0.73;;
39078;SDS011;24829;49.208;12.080;2024-03-25T12:15:21;2.47;;;0.98;;
39078;SDS011;24829;49.208;12.080;2024-03-25T12:17:46;4.88;;;0.90;;
39078;SDS011;24829;49.208;12.080;2024-03-25T12:20:12;2.45;;;1.00;;
39078;SDS011;24829;49.208;12.080;2024-03-25T12:22:38;4.05;;;1.08;;
39078;SDS011;24829;49.208;12.080;2024-03-25T12:25:05;4.80;;;1.35;;
39078;SDS011;24829;49.208;12.080;2024-03-25T12:27:32;2.50;;;1.20;;
39078;SDS011;24829;49.208;12.080;2024-03-25T12:32:43;4.45;;;1.30;;
39078;SDS011;24829;49.208;12.080;2024-03-25T12:35:13;2.60;;;1.00;;
39078;SDS011;24829;49.208;12.080;2024-03-25T12:37:43;3.97;;;1.00;;
39078;SDS011;24829;49.208;12.080;2024-03-25T12:40:11;3.90;;;1.27;;
39078;SDS011;24829;49.208;12.080;2024-03-25T12:42:39;3.20;;;1.13;;
39078;SDS011;24829;49.208;12.080;2024-03-25T12:45:05;2.95;;;1.02;;
39078;SDS011;24829;49.208;12.080;2024-03-25T12:47:31;4.18;;;1.20;;
39078;SDS011;24829;49.208;12.080;2024-03-25T12:49:57;3.30;;;1.20;;
39078;SDS011;24829;49.208;12.080;2024-03-25T12:52:23;3.15;;;1.20;;
39078;SDS011;24829;49.208;12.080;2024-03-25T12:54:50;2.55;;;1.13;;
39078;SDS011;24829;49.208;12.080;2024-03-25T12:57:15;3.15;;;0.82;;
39078;SDS011;24829;49.208;12.080;2024-03-25T12:59:41;2.97;;;1.00;;
39078;SDS011;24829;49.208;12.080;2024-03-25T13:02:10;4.55;;;1.13;;
39078;SDS011;24829;49.208;12.080;2024-03-25T13:04:37;3.00;;;0.90;;
39078;SDS011;24829;49.208;12.080;2024-03-25T13:07:04;3.42;;;1.00;;
39078;SDS011;24829;49.208;12.080;2024-03-25T13:09:30;3.22;;;1.38;;
39078;SDS011;24829;49.208;12.080;2024-03-25T13:11:56;2.85;;;0.90;;
39078;SDS011;24829;49.208;12.080;2024-03-25T13:14:22;2.72;;;1.17;;
39078;SDS011;24829;49.208;12.080;2024-03-25T13:16:48;2.78;;;1.00;;
39078;SDS011;24829;49.208;12.080;2024-03-25T13:19:14;2.38;;;1.10;;
39078;SDS011;24829;49.208;12.080;2024-03-25T13:21:39;1.63;;;0.80;;
39078;SDS011;24829;49.208;12.080;2024-03-25T13:24:06;2.83;;;1.02;;
39078;SDS011;24829;49.208;12.080;2024-03-25T13:26:32;4.25;;;1.30;;
39078;SDS011;24829;49.208;12.080;2024-03-25T13:28:57;2.40;;;0.88;;
39078;SDS011;24829;49.208;12.080;2024-03-25T13:31:23;5.40;;;1.98;;
39078;SDS011;24829;49.208;12.080;2024-03-25T13:33:49;2.53;;;0.80;;
39078;SDS011;24829;49.208;12.080;2024-03-25T13:36:16;4.00;;;1.05;;
39078;SDS011;24829;49.208;12.080;2024-03-25T13:38:42;2.45;;;0.75;;
39078;SDS011;24829;49.208;12.080;2024-03-25T13:41:08;2.13;;;0.80;;
39078;SDS011;24829;49.208;12.080;2024-03-25T13:43:33;3.25;;;0.98;;
39078;SDS011;24829;49.208;12.080;2024-03-25T13:45:59;2.38;;;1.20;;
39078;SDS011;24829;49.208;12.080;2024-03-25T13:48:25;3.40;;;1.00;;
39078;SDS011;24829;49.208;12.080;2024-03-25T13:50:53;2.10;;;1.00;;
39078;SDS011;24829;49.208;12.080;2024-03-25T13:53:19;3.85;;;1.33;;
39078;SDS011;24829;49.208;12.080;2024-03-25T13:55:45;5.45;;;0.90;;
39078;SDS011;24829;49.208;12.080;2024-03-25T13:58:10;2.50;;;0.80;;
39078;SDS011;24829;49.208;12.080;2024-03-25T14:00:36;2.58;;;0.80;;
39078;SDS011;24829;49.208;12.080;2024-03-25T14:03:02;2.70;;;0.80;;
39078;SDS011;24829;49.208;12.080;2024-03-25T14:05:28;5.65;;;1.05;;
39078;SDS011;24829;49.208;12.080;2024-03-25T14:07:54;2.20;;;1.08;;
39078;SDS011;24829;49.208;12.080;2024-03-25T14:10:19;2.03;;;1.10;;
39078;SDS011;24829;49.208;12.080;2024-03-25T14:12:46;2.35;;;1.25;;
39078;SDS011;24829;49.208;12.080;2024-03-25T14:15:12;2.60;;;1.20;;
39078;SDS011;24829;49.208;12.080;2024-03-25T14:17:37;2.03;;;1.00;;
39078;SDS011;24829;49.208;12.080;2024-03-25T14:20:03;1.70;;;0.90;;
39078;SDS011;24829;49.208;12.080;2024-03-25T14:22:31;2.10;;;0.80;;
39078;SDS011;24829;49.208;12.080;2024-03-25T14:24:57;2.53;;;1.10;;
39078;SDS011;24829;49.208;12.080;2024-03-25T14:27:23;3.50;;;1.30;;
39078;SDS011;24829;49.208;12.080;2024-03-25T14:29:49;2.05;;;0.82;;
39078;SDS011;24829;49.208;12.080;2024-03-25T14:32:18;1.38;;;0.90;;